createdAt,value
2022-11-07T00:02:41.871Z,2.88
2022-11-07T00:05:09.494Z,2.92
2022-11-07T00:07:42.563Z,2.25
2022-11-07T00:10:09.670Z,2.38
2022-11-07T00:12:37.464Z,2.88
2022-11-07T00:15:06.328Z,2.25
2022-11-07T00:17:33.570Z,2.65
2022-11-07T00:22:57.464Z,2.75
2022-11-07T00:25:25.479Z,2.60
2022-11-07T00:27:57.472Z,2.15
2022-11-07T00:30:25.443Z,2.67
2022-11-07T00:33:00.327Z,2.47
2022-11-07T00:35:27.473Z,2.55
2022-11-07T00:37:56.193Z,2.65
2022-11-07T00:40:23.526Z,3.20
2022-11-07T00:42:51.473Z,2.70
2022-11-07T00:45:19.588Z,2.70
2022-11-07T00:47:52.558Z,2.35
2022-11-07T00:50:19.548Z,2.70
2022-11-07T00:52:47.464Z,2.40
2022-11-07T00:55:19.558Z,3.33
2022-11-07T00:57:47.477Z,3.13
2022-11-07T01:00:15.664Z,3.05
2022-11-07T01:02:43.622Z,2.70
2022-11-07T01:05:11.621Z,2.78
2022-11-07T01:07:40.891Z,3.03
2022-11-07T01:10:13.453Z,2.50
2022-11-07T01:12:41.504Z,2.63
2022-11-07T01:18:01.490Z,2.45
2022-11-07T01:20:29.483Z,2.88
2022-11-07T01:22:57.457Z,2.70
2022-11-07T01:25:26.141Z,2.38
2022-11-07T01:27:53.595Z,2.58
2022-11-07T01:30:21.464Z,2.63
2022-11-07T01:32:49.467Z,2.80
2022-11-07T01:35:22.501Z,2.60
2022-11-07T01:37:49.493Z,3.03
2022-11-07T01:40:22.535Z,2.50
2022-11-07T01:42:49.487Z,2.40
2022-11-07T01:45:27.788Z,2.80
2022-11-07T01:47:58.921Z,2.20
2022-11-07T01:53:19.567Z,2.45
2022-11-07T01:55:47.474Z,2.83
2022-11-07T01:58:15.701Z,2.40
2022-11-07T02:00:48.525Z,2.40
2022-11-07T02:03:18.179Z,2.40
2022-11-07T02:05:56.724Z,2.63
2022-11-07T02:08:38.577Z,2.65
2022-11-07T02:11:31.279Z,2.85
2022-11-07T02:14:23.490Z,2.88
2022-11-07T02:16:51.467Z,2.47
2022-11-07T02:19:29.878Z,3.03
2022-11-07T02:22:38.614Z,2.10
2022-11-07T02:25:08.815Z,2.55
2022-11-07T02:27:37.257Z,2.50
2022-11-07T02:33:20.102Z,3.25
2022-11-07T02:35:50.138Z,2.50
2022-11-07T02:38:20.042Z,2.25
2022-11-07T02:40:51.751Z,2.58
2022-11-07T02:43:22.003Z,2.60
2022-11-07T02:45:50.460Z,2.75
2022-11-07T02:48:18.108Z,2.55
2022-11-07T02:50:46.027Z,2.13
2022-11-07T02:53:13.837Z,2.38
2022-11-07T02:55:41.530Z,2.33
2022-11-07T02:58:13.489Z,2.55
2022-11-07T03:00:46.531Z,2.47
2022-11-07T03:03:18.761Z,2.45
2022-11-07T03:05:45.502Z,2.38
2022-11-07T03:08:13.473Z,2.40
2022-11-07T03:10:45.454Z,2.50
2022-11-07T03:13:13.674Z,2.70
2022-11-07T03:15:41.574Z,2.30
2022-11-07T03:18:36.168Z,2.17
2022-11-07T03:21:04.373Z,2.30
2022-11-07T03:23:32.164Z,2.28
2022-11-07T03:26:06.087Z,2.53
2022-11-07T03:28:34.572Z,2.30
2022-11-07T03:31:03.000Z,2.10
2022-11-07T03:33:36.862Z,2.45
2022-11-07T03:36:03.664Z,2.13
2022-11-07T03:41:23.609Z,2.45
2022-11-07T03:43:51.594Z,2.65
2022-11-07T03:46:19.793Z,2.65
2022-11-07T03:51:44.491Z,2.60
2022-11-07T03:54:11.499Z,2.70
2022-11-07T03:56:39.809Z,2.60
2022-11-07T03:59:11.452Z,2.47
2022-11-07T04:01:51.167Z,2.53
2022-11-07T04:04:19.689Z,2.72
2022-11-07T04:06:52.481Z,2.50
2022-11-07T04:09:19.446Z,2.20
2022-11-07T04:12:11.333Z,2.33
2022-11-07T04:14:58.235Z,2.75
2022-11-07T04:17:26.805Z,2.20
2022-11-07T04:19:55.853Z,2.70
2022-11-07T04:22:29.776Z,2.60
2022-11-07T04:25:47.146Z,2.47
2022-11-07T04:28:17.748Z,2.22
2022-11-07T04:30:45.516Z,2.20
2022-11-07T04:33:15.395Z,2.35
2022-11-07T04:35:48.564Z,2.60
2022-11-07T04:38:15.464Z,2.70
2022-11-07T04:40:43.543Z,2.30
2022-11-07T04:43:15.922Z,2.85
2022-11-07T04:45:43.509Z,2.38
2022-11-07T04:51:03.606Z,2.60
2022-11-07T04:53:31.493Z,2.35
2022-11-07T04:56:03.504Z,2.28
2022-11-07T04:58:31.474Z,2.13
2022-11-07T05:00:59.495Z,2.40
2022-11-07T05:03:27.559Z,2.30
2022-11-07T05:05:55.536Z,2.47
2022-11-07T05:08:47.921Z,2.63
2022-11-07T05:11:20.612Z,2.28
2022-11-07T05:13:47.484Z,2.78
2022-11-07T05:16:22.513Z,2.45
2022-11-07T05:18:49.480Z,2.55
2022-11-07T05:21:17.720Z,2.30
2022-11-07T05:23:46.610Z,2.33
2022-11-07T05:26:13.719Z,2.08
2022-11-07T05:28:41.676Z,2.60
2022-11-07T05:31:15.177Z,2.38
2022-11-07T05:33:49.254Z,2.13
2022-11-07T05:36:25.030Z,2.63
2022-11-07T05:38:53.851Z,2.20
2022-11-07T05:41:26.975Z,2.38
2022-11-07T05:43:59.476Z,2.33
2022-11-07T05:49:24.539Z,2.45
2022-11-07T05:51:54.157Z,2.50
2022-11-07T05:54:21.646Z,2.38
2022-11-07T05:56:53.740Z,2.15
2022-11-07T05:59:25.037Z,2.40
2022-11-07T06:02:00.583Z,2.60
2022-11-07T06:04:27.656Z,2.53
2022-11-07T06:06:55.569Z,2.28
2022-11-07T06:09:23.548Z,2.35
2022-11-07T06:11:55.544Z,2.33
2022-11-07T06:14:49.471Z,3.17
2022-11-07T06:17:17.491Z,2.92
2022-11-07T06:19:45.525Z,2.28
2022-11-07T06:22:13.465Z,1.80
2022-11-07T06:24:41.499Z,2.30
2022-11-07T06:27:09.510Z,2.60
2022-11-07T06:35:46.140Z,2.63
2022-11-07T06:38:15.344Z,2.85
2022-11-07T06:40:44.038Z,2.30
2022-11-07T06:43:19.532Z,2.55
2022-11-07T06:45:47.828Z,2.80
2022-11-07T06:48:41.189Z,2.80
2022-11-07T06:51:10.453Z,2.58
2022-11-07T06:53:38.168Z,2.33
2022-11-07T06:56:08.346Z,2.42
2022-11-07T06:58:36.254Z,2.70
2022-11-07T07:01:05.792Z,4.55
2022-11-07T07:03:38.565Z,2.58
2022-11-07T07:06:13.025Z,2.95
2022-11-07T07:08:41.987Z,2.38
2022-11-07T07:11:12.753Z,2.83
2022-11-07T07:13:39.974Z,2.75
2022-11-07T07:16:08.642Z,2.33
2022-11-07T07:18:35.786Z,2.75
2022-11-07T07:21:07.676Z,2.80
2022-11-07T07:26:28.470Z,2.72
2022-11-07T07:29:20.255Z,3.25
2022-11-07T07:31:47.559Z,2.65
2022-11-07T07:34:15.545Z,2.75
2022-11-07T07:39:35.489Z,2.65
2022-11-07T07:42:03.691Z,2.70
2022-11-07T07:44:36.153Z,2.58
2022-11-07T07:47:11.502Z,2.70
2022-11-07T07:49:43.495Z,2.38
2022-11-07T07:52:11.489Z,3.03
2022-11-07T07:54:39.537Z,3.13
2022-11-07T07:57:07.468Z,2.70
2022-11-07T07:59:35.509Z,2.63
2022-11-07T08:02:03.551Z,3.70
2022-11-07T08:05:00.485Z,2.58
2022-11-07T08:07:27.559Z,2.85
2022-11-07T08:10:40.856Z,2.75
2022-11-07T08:13:07.491Z,3.03
2022-11-07T08:15:35.715Z,2.50
2022-11-07T08:18:08.587Z,2.70
2022-11-07T08:20:35.527Z,2.42
2022-11-07T08:23:08.645Z,2.38
2022-11-07T08:25:39.499Z,2.58
2022-11-07T08:28:08.608Z,2.33
2022-11-07T08:30:35.900Z,2.25
2022-11-07T08:35:56.346Z,2.58
2022-11-07T08:38:23.850Z,2.33
2022-11-07T08:40:52.174Z,2.10
2022-11-07T08:43:19.827Z,2.42
2022-11-07T08:45:49.019Z,2.60
2022-11-07T08:48:22.607Z,2.55
2022-11-07T08:51:14.550Z,2.50
2022-11-07T08:53:41.477Z,2.50
2022-11-07T08:56:10.458Z,2.75
2022-11-07T08:58:37.815Z,2.42
2022-11-07T09:01:10.278Z,2.30
2022-11-07T09:03:48.878Z,2.72
2022-11-07T09:06:21.877Z,2.70
2022-11-07T09:08:53.554Z,2.85
2022-11-07T09:11:22.060Z,2.60
2022-11-07T09:13:54.571Z,2.95
2022-11-07T09:16:22.975Z,2.47
2022-11-07T09:21:48.648Z,2.88
2022-11-07T09:24:15.492Z,2.92
2022-11-07T09:26:48.499Z,2.60
2022-11-07T09:29:15.639Z,2.63
2022-11-07T09:34:40.525Z,2.45
2022-11-07T09:37:07.623Z,2.55
2022-11-07T09:39:35.471Z,2.28
2022-11-07T09:42:18.870Z,2.40
2022-11-07T09:44:57.063Z,2.53
2022-11-07T09:47:37.840Z,2.28
2022-11-07T09:53:31.581Z,2.60
2022-11-07T09:56:01.705Z,2.45
2022-11-07T09:58:42.222Z,2.65
2022-11-07T10:01:16.460Z,1.90
2022-11-07T10:04:10.274Z,2.10
2022-11-07T10:06:35.629Z,2.17
2022-11-07T10:09:53.143Z,2.17
2022-11-07T10:12:44.975Z,2.05
2022-11-07T10:15:26.577Z,2.40
2022-11-07T10:17:54.019Z,2.10
2022-11-07T10:21:16.039Z,2.28
2022-11-07T10:24:09.731Z,3.00
2022-11-07T10:26:44.113Z,2.40
2022-11-07T10:29:17.653Z,2.70
2022-11-07T10:31:54.673Z,2.70
2022-11-07T10:34:31.409Z,3.60
2022-11-07T10:36:59.518Z,3.03
2022-11-07T10:39:30.851Z,2.70
2022-11-07T10:42:05.600Z,2.70
2022-11-07T10:44:34.745Z,3.50
2022-11-07T10:47:20.562Z,3.45
2022-11-07T10:50:15.142Z,2.80
2022-11-07T10:52:56.436Z,2.55
2022-11-07T10:55:24.757Z,2.90
2022-11-07T10:58:23.451Z,3.45
2022-11-07T11:01:03.456Z,2.70
2022-11-07T11:09:35.564Z,3.20
2022-11-07T11:15:06.660Z,3.15
2022-11-07T11:17:33.755Z,2.38
2022-11-07T11:20:02.129Z,2.10
2022-11-07T11:22:30.336Z,2.47
2022-11-07T11:25:15.839Z,2.20
2022-11-07T11:27:46.480Z,2.40
2022-11-07T11:30:17.937Z,3.08
2022-11-07T11:32:45.774Z,2.65
2022-11-07T11:35:36.339Z,2.53
2022-11-07T11:38:27.946Z,2.50
2022-11-07T11:41:10.791Z,2.83
2022-11-07T11:47:34.664Z,2.45
2022-11-07T11:50:17.872Z,2.78
2022-11-07T11:52:45.871Z,2.60
2022-11-07T11:55:19.740Z,2.53
2022-11-07T11:58:11.924Z,3.10
2022-11-07T12:00:53.906Z,2.30
2022-11-07T12:03:48.968Z,3.13
2022-11-07T12:06:36.490Z,3.00
2022-11-07T12:09:18.270Z,2.95
2022-11-07T12:12:06.905Z,2.75
2022-11-07T12:14:41.545Z,3.40
2022-11-07T12:17:26.251Z,2.70
2022-11-07T12:20:11.081Z,2.80
2022-11-07T12:22:57.810Z,2.92
2022-11-07T12:25:41.696Z,2.50
2022-11-07T12:28:35.444Z,3.40
2022-11-07T12:37:22.209Z,3.00
2022-11-07T12:40:17.693Z,2.50
2022-11-07T12:46:38.687Z,2.38
2022-11-07T12:49:05.515Z,2.47
2022-11-07T12:52:15.356Z,2.95
2022-11-07T12:54:57.141Z,3.17
2022-11-07T12:57:33.823Z,2.65
2022-11-07T13:00:29.598Z,2.50
2022-11-07T13:03:20.648Z,2.60
2022-11-07T13:05:58.164Z,2.85
2022-11-07T13:09:02.701Z,2.95
2022-11-07T13:11:54.426Z,2.75
2022-11-07T13:14:33.778Z,2.72
2022-11-07T13:17:01.461Z,2.55
2022-11-07T13:19:37.715Z,2.75
2022-11-07T13:22:18.953Z,2.83
2022-11-07T13:25:09.371Z,2.58
2022-11-07T13:27:42.090Z,2.80
2022-11-07T13:30:40.090Z,3.00
2022-11-07T13:36:33.096Z,2.17
2022-11-07T13:39:06.485Z,2.60
2022-11-07T13:41:46.080Z,2.33
2022-11-07T13:44:25.907Z,2.85
2022-11-07T13:46:56.991Z,3.00
2022-11-07T13:49:43.033Z,2.30
2022-11-07T13:52:20.133Z,2.45
2022-11-07T13:54:55.218Z,2.40
2022-11-07T13:57:45.480Z,2.35
2022-11-07T14:00:20.785Z,2.50
2022-11-07T14:03:01.119Z,2.38
2022-11-07T14:05:38.793Z,2.55
2022-11-07T14:08:26.282Z,2.30
2022-11-07T14:10:54.129Z,2.20
2022-11-07T14:13:33.163Z,2.50
2022-11-07T14:16:18.669Z,2.17
2022-11-07T14:18:56.544Z,2.22
2022-11-07T14:21:36.842Z,2.30
2022-11-07T14:24:36.333Z,2.28
2022-11-07T14:27:13.801Z,2.53
2022-11-07T14:29:52.571Z,2.63
2022-11-07T14:32:19.662Z,3.00
2022-11-07T14:35:16.495Z,2.30
2022-11-07T14:37:43.471Z,2.50
2022-11-07T14:43:04.015Z,2.40
2022-11-07T14:46:10.784Z,2.60
2022-11-07T14:48:28.144Z,2.40
2022-11-07T14:50:56.822Z,2.50
2022-11-07T14:53:41.015Z,2.45
2022-11-07T14:56:15.565Z,2.50
2022-11-07T14:58:43.851Z,2.53
2022-11-07T15:01:25.660Z,2.30
2022-11-07T15:03:57.920Z,2.42
2022-11-07T15:06:33.950Z,2.28
2022-11-07T15:09:06.853Z,2.28
2022-11-07T15:11:36.604Z,2.80
2022-11-07T15:14:11.253Z,2.35
2022-11-07T15:16:46.524Z,2.50
2022-11-07T15:19:21.257Z,2.60
2022-11-07T15:21:52.715Z,2.60
2022-11-07T15:24:45.122Z,2.40
2022-11-07T15:27:18.520Z,2.35
2022-11-07T15:30:02.278Z,2.70
2022-11-07T15:35:43.665Z,3.25
2022-11-07T15:38:23.797Z,2.63
2022-11-07T15:40:51.804Z,3.08
2022-11-07T15:43:20.122Z,2.63
2022-11-07T15:45:52.446Z,3.13
2022-11-07T15:48:22.450Z,3.55
2022-11-07T15:50:50.149Z,2.47
2022-11-07T15:53:23.698Z,2.80
2022-11-07T15:58:46.074Z,2.67
2022-11-07T16:01:18.700Z,2.47
2022-11-07T16:03:48.420Z,2.50
2022-11-07T16:06:33.164Z,2.20
2022-11-07T16:09:05.643Z,2.20
2022-11-07T16:11:36.617Z,2.85
2022-11-07T16:14:35.106Z,2.60
2022-11-07T16:19:43.861Z,2.42
2022-11-07T16:22:40.896Z,2.22
2022-11-07T16:25:21.182Z,1.85
2022-11-07T16:27:52.295Z,2.90
2022-11-07T16:30:25.439Z,2.20
2022-11-07T16:32:53.728Z,2.38
2022-11-07T16:35:47.300Z,3.35
2022-11-07T16:38:18.521Z,2.28
2022-11-07T16:40:45.766Z,2.38
2022-11-07T16:43:13.855Z,2.15
2022-11-07T16:45:54.084Z,2.20
2022-11-07T16:48:27.344Z,1.85
2022-11-07T16:51:01.562Z,1.90
2022-11-07T16:53:34.512Z,2.17
2022-11-07T16:56:03.108Z,2.83
2022-11-07T16:58:34.124Z,2.05
2022-11-07T17:01:05.311Z,2.22
2022-11-07T17:03:33.878Z,1.65
2022-11-07T17:06:03.814Z,1.80
2022-11-07T17:08:43.747Z,1.85
2022-11-07T17:11:17.744Z,1.63
2022-11-07T17:13:45.574Z,2.38
2022-11-07T17:16:18.704Z,2.20
2022-11-07T17:19:13.224Z,1.98
2022-11-07T17:21:46.246Z,2.67
2022-11-07T17:24:25.188Z,2.10
2022-11-07T17:26:53.548Z,2.45
2022-11-07T17:29:21.566Z,2.15
2022-11-07T17:31:49.453Z,2.40
2022-11-07T17:34:17.573Z,2.50
2022-11-07T17:36:50.858Z,2.67
2022-11-07T17:39:20.017Z,2.90
2022-11-07T17:41:49.859Z,2.75
2022-11-07T17:44:26.587Z,2.42
2022-11-07T17:46:53.789Z,2.30
2022-11-07T17:49:25.449Z,2.53
2022-11-07T17:51:54.512Z,2.80
2022-11-07T17:54:29.719Z,2.80
2022-11-07T17:57:23.726Z,2.75
2022-11-07T17:59:55.593Z,2.80
2022-11-07T18:02:23.916Z,2.95
2022-11-07T18:04:51.700Z,2.95
2022-11-07T18:07:23.457Z,3.45
2022-11-07T18:09:58.008Z,3.60
2022-11-07T18:12:25.602Z,2.88
2022-11-07T18:14:53.540Z,2.83
2022-11-07T18:17:21.535Z,2.78
2022-11-07T18:20:57.828Z,3.25
2022-11-07T18:23:29.484Z,3.28
2022-11-07T18:26:14.642Z,3.00
2022-11-07T18:28:45.621Z,2.75
2022-11-07T18:31:22.634Z,3.40
2022-11-07T18:33:53.705Z,3.05
2022-11-07T18:36:21.723Z,3.42
2022-11-07T18:38:50.084Z,3.80
2022-11-07T18:41:20.483Z,3.65
2022-11-07T18:43:47.714Z,3.50
2022-11-07T18:49:16.309Z,3.45
2022-11-07T18:51:44.107Z,4.05
2022-11-07T18:54:13.762Z,3.85
2022-11-07T18:56:43.100Z,3.22
2022-11-07T18:59:15.638Z,3.40
2022-11-07T19:01:48.839Z,4.25
2022-11-07T19:04:15.536Z,3.92
2022-11-07T19:06:56.845Z,3.50
2022-11-07T19:09:30.971Z,3.90
2022-11-07T19:12:01.716Z,3.92
2022-11-07T19:14:30.695Z,3.72
2022-11-07T19:16:58.010Z,3.22
2022-11-07T19:19:28.730Z,3.83
2022-11-07T19:21:58.588Z,3.45
2022-11-07T19:24:25.508Z,3.88
2022-11-07T19:26:53.527Z,4.22
2022-11-07T19:29:26.691Z,3.50
2022-11-07T19:31:53.449Z,4.15
2022-11-07T19:34:45.763Z,4.28
2022-11-07T19:38:08.665Z,4.40
2022-11-07T19:41:05.655Z,3.63
2022-11-07T19:43:54.349Z,3.88
2022-11-07T19:46:23.003Z,3.53
2022-11-07T19:48:56.399Z,4.28
2022-11-07T19:51:28.920Z,4.00
2022-11-07T19:54:47.053Z,3.72
2022-11-07T19:57:45.521Z,4.35
2022-11-07T20:00:14.026Z,4.03
2022-11-07T20:02:44.811Z,3.90
2022-11-07T20:05:24.254Z,4.38
2022-11-07T20:07:55.331Z,4.05
2022-11-07T20:10:26.221Z,3.53
2022-11-07T20:12:54.056Z,3.22
2022-11-07T20:15:54.599Z,3.97
2022-11-07T20:18:47.542Z,3.60
2022-11-07T20:21:18.887Z,3.70
2022-11-07T20:23:53.820Z,3.08
2022-11-07T20:26:24.462Z,3.47
2022-11-07T20:28:52.276Z,4.07
2022-11-07T20:34:37.992Z,3.15
2022-11-07T20:37:05.599Z,3.22
2022-11-07T20:39:33.504Z,3.40
2022-11-07T20:42:01.655Z,3.55
2022-11-07T20:44:29.541Z,3.85
2022-11-07T20:46:57.592Z,3.95
2022-11-07T20:49:25.456Z,4.53
2022-11-07T20:52:17.489Z,3.65
2022-11-07T20:54:45.467Z,4.00
2022-11-07T20:57:18.516Z,4.35
2022-11-07T20:59:45.868Z,3.75
2022-11-07T21:02:13.786Z,3.72
2022-11-07T21:05:03.235Z,2.92
2022-11-07T21:07:34.518Z,3.67
2022-11-07T21:10:01.661Z,3.28
2022-11-07T21:12:29.498Z,3.08
2022-11-07T21:15:02.535Z,3.28
2022-11-07T21:17:29.477Z,3.40
2022-11-07T21:19:57.468Z,3.20
2022-11-07T21:22:29.332Z,3.08
2022-11-07T21:24:57.691Z,3.10
2022-11-07T21:27:25.531Z,3.38
2022-11-07T21:29:53.535Z,3.35
2022-11-07T21:32:21.477Z,3.25
2022-11-07T21:34:49.492Z,2.75
2022-11-07T21:37:17.611Z,2.80
2022-11-07T21:42:37.578Z,3.08
2022-11-07T21:45:05.894Z,2.78
2022-11-07T21:47:43.205Z,2.55
2022-11-07T21:50:38.346Z,2.90
2022-11-07T21:53:05.690Z,2.55
2022-11-07T21:55:34.300Z,2.47
2022-11-07T21:58:01.583Z,3.10
2022-11-07T22:00:58.679Z,2.83
2022-11-07T22:03:51.052Z,2.78
2022-11-07T22:06:14.324Z,2.30
2022-11-07T22:08:41.668Z,2.42
2022-11-07T22:11:13.960Z,2.50
2022-11-07T22:13:45.692Z,2.92
2022-11-07T22:16:16.576Z,2.63
2022-11-07T22:18:44.060Z,2.67
2022-11-07T22:21:14.448Z,2.45
2022-11-07T22:24:13.087Z,2.72
2022-11-07T22:26:46.756Z,2.30
2022-11-07T22:29:13.468Z,2.60
2022-11-07T22:31:41.490Z,2.53
2022-11-07T22:34:09.634Z,2.67
2022-11-07T22:37:06.583Z,2.30
2022-11-07T22:45:24.484Z,2.85
2022-11-07T22:47:51.492Z,2.47
2022-11-07T22:50:19.771Z,2.65
2022-11-07T22:52:51.240Z,2.22
2022-11-07T22:55:23.485Z,2.00
2022-11-07T22:57:52.524Z,2.60
2022-11-07T23:00:21.788Z,2.03
2022-11-07T23:02:55.568Z,2.50
2022-11-07T23:05:23.469Z,2.22
2022-11-07T23:07:58.162Z,1.95
2022-11-07T23:10:30.720Z,2.10
2022-11-07T23:12:57.903Z,2.10
2022-11-07T23:15:25.782Z,1.70
2022-11-07T23:18:20.076Z,2.67
2022-11-07T23:24:00.162Z,2.05
2022-11-07T23:26:33.906Z,2.10
2022-11-07T23:29:12.233Z,1.83
2022-11-07T23:31:44.376Z,1.67
2022-11-07T23:34:11.975Z,2.25
2022-11-07T23:36:44.502Z,1.80
2022-11-07T23:39:37.556Z,1.92
2022-11-07T23:42:05.527Z,2.33
2022-11-07T23:44:33.480Z,1.88
2022-11-07T23:47:19.924Z,1.95
2022-11-07T23:52:57.450Z,1.63
2022-11-07T23:55:51.469Z,1.60
2022-11-07T23:58:37.950Z,1.65
